createdAt,value
2019-04-14T00:01:41.688Z,19.27
2019-04-14T00:04:16.252Z,18.55
2019-04-14T00:06:48.364Z,17.23
2019-04-14T00:09:20.666Z,18.00
2019-04-14T00:11:52.696Z,18.48
2019-04-14T00:14:25.030Z,17.37
2019-04-14T00:16:57.478Z,18.90
2019-04-14T00:19:30.639Z,17.95
2019-04-14T00:22:03.308Z,18.75
2019-04-14T00:24:35.733Z,19.65
2019-04-14T00:27:08.447Z,21.55
2019-04-14T00:29:39.866Z,26.02
2019-04-14T00:32:11.717Z,27.27
2019-04-14T00:34:59.363Z,26.85
2019-04-14T00:37:58.270Z,26.00
2019-04-14T00:40:36.901Z,25.20
2019-04-14T00:43:16.394Z,30.77
2019-04-14T00:45:55.087Z,24.90
2019-04-14T00:48:27.652Z,24.67
2019-04-14T00:50:59.140Z,22.05
2019-04-14T00:53:31.621Z,23.27
2019-04-14T00:56:04.049Z,23.47
2019-04-14T00:58:36.792Z,22.58
2019-04-14T01:01:09.045Z,22.73
2019-04-14T01:03:41.577Z,21.40
2019-04-14T01:06:14.208Z,22.25
2019-04-14T01:08:46.874Z,22.20
2019-04-14T01:11:18.258Z,22.27
2019-04-14T01:13:50.739Z,21.48
2019-04-14T01:16:24.900Z,22.77
2019-04-14T01:18:55.867Z,21.52
2019-04-14T01:21:28.526Z,21.62
2019-04-14T01:24:00.946Z,21.42
2019-04-14T01:26:33.182Z,22.10
2019-04-14T01:29:05.827Z,20.45
2019-04-14T01:31:38.216Z,19.98
2019-04-14T01:34:09.446Z,20.55
2019-04-14T01:36:40.951Z,20.92
2019-04-14T01:39:13.222Z,20.10
2019-04-14T01:41:45.568Z,20.55
2019-04-14T01:44:17.755Z,19.73
2019-04-14T01:46:49.867Z,21.25
2019-04-14T01:49:21.104Z,20.00
2019-04-14T01:52:10.651Z,19.65
2019-04-14T01:55:00.433Z,20.12
2019-04-14T01:57:48.164Z,20.02
2019-04-14T02:00:38.128Z,19.42
2019-04-14T02:03:10.679Z,19.52
2019-04-14T02:05:43.161Z,20.02
2019-04-14T02:08:15.520Z,19.48
2019-04-14T02:10:47.835Z,20.27
2019-04-14T02:13:20.356Z,19.52
2019-04-14T02:15:52.818Z,20.05
2019-04-14T02:18:25.083Z,20.77
2019-04-14T02:20:57.799Z,22.00
2019-04-14T02:23:30.225Z,21.33
2019-04-14T02:26:02.254Z,21.10
2019-04-14T02:28:35.360Z,21.70
2019-04-14T02:31:17.585Z,22.75
2019-04-14T02:34:07.529Z,24.02
2019-04-14T02:36:38.464Z,23.70
2019-04-14T02:39:13.910Z,25.12
2019-04-14T02:42:00.249Z,23.92
2019-04-14T02:44:27.032Z,24.40
2019-04-14T02:49:27.369Z,23.98
2019-04-14T02:51:56.340Z,21.80
2019-04-14T02:54:37.006Z,21.95
2019-04-14T02:59:39.473Z,19.10
2019-04-14T03:04:45.004Z,19.45
2019-04-14T03:07:21.520Z,18.87
2019-04-14T03:09:50.117Z,19.07
2019-04-14T03:12:27.433Z,19.73
2019-04-14T03:14:53.683Z,19.42
2019-04-14T03:23:14.282Z,18.82
2019-04-14T03:25:45.507Z,18.15
2019-04-14T03:28:30.533Z,18.10
2019-04-14T03:31:34.602Z,17.65
2019-04-14T03:38:50.865Z,18.42
2019-04-14T03:43:41.363Z,18.15
2019-04-14T03:46:27.824Z,18.07
2019-04-14T03:52:03.689Z,17.48
2019-04-14T03:54:10.951Z,17.48
2019-04-14T03:56:51.369Z,18.67
2019-04-14T03:59:24.081Z,18.37
2019-04-14T04:01:56.650Z,17.73
2019-04-14T04:04:29.430Z,17.77
2019-04-14T04:07:01.878Z,17.48
2019-04-14T04:09:37.268Z,19.12
2019-04-14T04:12:09.618Z,17.85
2019-04-14T04:14:41.997Z,19.15
2019-04-14T04:17:32.367Z,18.40
2019-04-14T04:20:13.067Z,17.95
2019-04-14T04:23:09.622Z,19.12
2019-04-14T04:25:48.967Z,18.65
2019-04-14T04:28:32.122Z,18.87
2019-04-14T04:31:26.438Z,20.20
2019-04-14T04:34:05.674Z,20.08
2019-04-14T04:36:48.775Z,19.17
2019-04-14T04:39:23.650Z,19.40
2019-04-14T04:41:55.782Z,18.40
2019-04-14T04:44:27.060Z,18.15
2019-04-14T04:46:59.141Z,17.77
2019-04-14T04:49:31.267Z,20.02
2019-04-14T04:52:04.098Z,20.48
2019-04-14T04:54:36.391Z,20.30
2019-04-14T04:57:08.892Z,19.12
2019-04-14T04:59:40.931Z,19.57
2019-04-14T05:02:13.506Z,19.40
2019-04-14T05:04:45.901Z,18.60
2019-04-14T05:07:17.369Z,19.27
2019-04-14T05:10:08.904Z,18.85
2019-04-14T05:12:54.349Z,18.48
2019-04-14T05:15:38.014Z,20.10
2019-04-14T05:18:17.800Z,17.85
2019-04-14T05:20:49.141Z,18.50
2019-04-14T05:23:21.314Z,19.05
2019-04-14T05:25:53.888Z,19.65
2019-04-14T05:28:26.722Z,19.60
2019-04-14T05:30:58.955Z,18.52
2019-04-14T05:33:31.413Z,19.27
2019-04-14T05:36:04.122Z,19.60
2019-04-14T05:38:36.983Z,18.45
2019-04-14T05:41:09.105Z,19.62
2019-04-14T05:43:48.768Z,19.45
2019-04-14T05:46:14.167Z,18.42
2019-04-14T05:48:47.024Z,19.23
2019-04-14T05:51:21.352Z,19.05
2019-04-14T05:53:52.332Z,18.85
2019-04-14T05:56:25.172Z,20.82
2019-04-14T05:58:57.873Z,20.68
2019-04-14T06:01:29.256Z,18.17
2019-04-14T06:04:00.606Z,18.87
2019-04-14T06:06:31.907Z,19.02
2019-04-14T06:09:06.063Z,18.35
2019-04-14T06:11:37.606Z,17.57
2019-04-14T06:14:08.936Z,18.35
2019-04-14T06:16:40.588Z,18.07
2019-04-14T06:19:11.851Z,18.27
2019-04-14T06:21:43.528Z,17.82
2019-04-14T06:24:14.977Z,16.52
2019-04-14T06:26:46.208Z,16.75
2019-04-14T06:29:17.885Z,16.80
2019-04-14T06:32:14.461Z,16.02
2019-04-14T06:35:10.073Z,17.30
2019-04-14T06:37:51.523Z,29.67
2019-04-14T06:40:23.790Z,16.07
2019-04-14T06:42:55.111Z,17.67
2019-04-14T06:45:26.299Z,16.07
2019-04-14T06:47:57.685Z,16.75
2019-04-14T06:50:29.015Z,17.07
2019-04-14T06:53:01.040Z,18.90
2019-04-14T06:55:32.289Z,16.93
2019-04-14T06:58:03.594Z,18.45
2019-04-14T07:00:35.214Z,20.60
2019-04-14T07:03:06.763Z,20.23
2019-04-14T07:05:37.874Z,21.23
2019-04-14T07:08:09.383Z,21.42
2019-04-14T07:10:41.223Z,20.55
2019-04-14T07:13:13.988Z,19.85
2019-04-14T07:15:45.603Z,21.80
2019-04-14T07:18:16.753Z,21.05
2019-04-14T07:20:48.463Z,21.40
2019-04-14T07:23:19.816Z,21.33
2019-04-14T07:25:51.374Z,20.68
2019-04-14T07:28:23.186Z,19.17
2019-04-14T07:31:06.870Z,19.65
2019-04-14T07:34:06.301Z,19.45
2019-04-14T07:37:00.653Z,20.88
2019-04-14T07:39:39.232Z,21.45
2019-04-14T07:42:14.423Z,19.70
2019-04-14T07:45:10.959Z,21.33
2019-04-14T07:47:50.706Z,21.10
2019-04-14T07:50:50.489Z,20.82
2019-04-14T07:53:45.973Z,21.12
2019-04-14T07:56:34.904Z,20.30
2019-04-14T07:59:27.615Z,21.45
2019-04-14T08:02:26.902Z,22.67
2019-04-14T08:05:07.610Z,22.05
2019-04-14T08:07:38.913Z,21.48
2019-04-14T08:10:10.657Z,22.65
2019-04-14T08:12:42.005Z,22.55
2019-04-14T08:15:14.241Z,22.17
2019-04-14T08:17:45.844Z,23.12
2019-04-14T08:20:27.462Z,22.25
2019-04-14T08:22:50.835Z,23.22
2019-04-14T08:25:22.263Z,22.45
2019-04-14T08:27:53.480Z,23.95
2019-04-14T08:30:24.744Z,22.02
2019-04-14T08:32:56.133Z,22.65
2019-04-14T08:35:27.335Z,21.95
2019-04-14T08:37:58.964Z,23.55
2019-04-14T08:40:30.616Z,23.80
2019-04-14T08:43:34.134Z,22.70
2019-04-14T08:46:11.716Z,22.95
2019-04-14T08:48:47.959Z,22.60
2019-04-14T08:51:48.106Z,23.35
2019-04-14T08:54:37.060Z,21.70
2019-04-14T08:57:27.691Z,22.48
2019-04-14T09:00:06.132Z,22.17
2019-04-14T09:03:01.408Z,19.95
2019-04-14T09:05:58.320Z,19.98
2019-04-14T09:08:55.064Z,19.37
2019-04-14T09:11:31.185Z,18.15
2019-04-14T09:14:02.592Z,23.38
2019-04-14T09:16:34.437Z,20.52
2019-04-14T09:19:07.944Z,34.50
2019-04-14T09:21:39.084Z,29.52
2019-04-14T09:24:10.404Z,31.57
2019-04-14T09:26:42.328Z,18.57
2019-04-14T09:29:13.582Z,18.85
2019-04-14T09:31:45.187Z,17.52
2019-04-14T09:34:16.427Z,13.55
2019-04-14T09:36:48.039Z,12.23
2019-04-14T09:39:19.959Z,13.32
2019-04-14T09:41:51.269Z,13.30
2019-04-14T09:44:22.956Z,12.73
2019-04-14T09:46:54.610Z,13.38
2019-04-14T09:49:26.157Z,11.48
2019-04-14T09:51:57.622Z,11.68
2019-04-14T09:54:28.966Z,11.95
2019-04-14T09:57:00.265Z,12.00
2019-04-14T09:59:31.824Z,11.38
2019-04-14T10:02:03.946Z,10.35
2019-04-14T10:04:35.962Z,13.93
2019-04-14T10:07:07.141Z,12.15
2019-04-14T10:09:38.464Z,19.60
2019-04-14T10:12:09.706Z,18.35
2019-04-14T10:14:41.241Z,13.10
2019-04-14T10:17:13.170Z,13.43
2019-04-14T10:19:44.572Z,13.68
2019-04-14T10:22:16.171Z,12.80
2019-04-14T10:24:47.557Z,13.25
2019-04-14T10:27:18.587Z,13.08
2019-04-14T10:29:49.859Z,12.20
2019-04-14T10:32:21.288Z,12.33
2019-04-14T10:34:52.413Z,12.35
2019-04-14T10:37:23.600Z,13.45
2019-04-14T10:39:55.266Z,13.95
2019-04-14T10:42:26.545Z,17.85
2019-04-14T10:44:58.123Z,15.83
2019-04-14T10:47:29.370Z,15.68
2019-04-14T10:50:00.498Z,14.07
2019-04-14T10:52:32.089Z,11.75
2019-04-14T10:55:03.741Z,11.80
2019-04-14T10:57:34.932Z,11.80
2019-04-14T11:00:09.195Z,11.88
2019-04-14T11:02:41.083Z,11.05
2019-04-14T11:05:12.508Z,11.85
2019-04-14T11:07:44.240Z,10.95
2019-04-14T11:10:16.127Z,11.45
2019-04-14T11:12:47.626Z,11.03
2019-04-14T11:15:19.102Z,10.53
2019-04-14T11:17:50.289Z,10.98
2019-04-14T11:20:21.899Z,10.23
2019-04-14T11:23:02.739Z,10.53
2019-04-14T11:25:25.991Z,11.53
2019-04-14T11:27:57.533Z,10.93
2019-04-14T11:30:28.838Z,10.38
2019-04-14T11:33:19.280Z,9.83
2019-04-14T11:36:05.389Z,10.50
2019-04-14T11:38:40.309Z,11.08
2019-04-14T11:41:15.263Z,11.50
2019-04-14T11:43:46.315Z,10.05
2019-04-14T11:46:17.693Z,10.25
2019-04-14T11:48:48.939Z,9.80
2019-04-14T11:51:21.515Z,10.55
2019-04-14T11:53:52.788Z,26.25
2019-04-14T11:56:23.977Z,9.08
2019-04-14T11:58:55.291Z,20.52
2019-04-14T12:01:54.519Z,13.78
2019-04-14T12:04:38.522Z,10.88
2019-04-14T12:07:23.872Z,10.45
2019-04-14T12:10:07.717Z,10.45
2019-04-14T12:12:39.125Z,9.45
2019-04-14T12:15:16.137Z,8.45
2019-04-14T12:17:43.852Z,8.05
2019-04-14T12:20:15.130Z,8.18
2019-04-14T12:22:46.431Z,8.43
2019-04-14T12:25:17.959Z,8.40
2019-04-14T12:27:49.195Z,8.05
2019-04-14T12:30:20.322Z,6.85
2019-04-14T12:32:51.370Z,6.00
2019-04-14T12:35:22.711Z,5.97
2019-04-14T12:37:53.875Z,7.17
2019-04-14T12:40:25.465Z,6.58
2019-04-14T12:43:12.234Z,6.05
2019-04-14T12:46:01.061Z,5.87
2019-04-14T12:48:39.265Z,5.90
2019-04-14T12:51:33.222Z,6.40
2019-04-14T12:54:04.651Z,6.45
2019-04-14T12:56:35.924Z,5.50
2019-04-14T12:59:19.701Z,5.95
2019-04-14T13:01:58.887Z,6.28
2019-04-14T13:04:30.146Z,6.15
2019-04-14T13:07:01.720Z,5.53
2019-04-14T13:09:32.997Z,5.78
2019-04-14T13:12:04.356Z,5.97
2019-04-14T13:14:35.794Z,6.65
2019-04-14T13:17:07.115Z,7.50
2019-04-14T13:19:38.411Z,6.33
2019-04-14T13:22:09.705Z,6.67
2019-04-14T13:24:40.821Z,6.42
2019-04-14T13:27:12.441Z,5.72
2019-04-14T13:29:43.721Z,7.03
2019-04-14T13:32:15.092Z,7.15
2019-04-14T13:34:46.331Z,7.40
2019-04-14T13:37:17.511Z,6.78
2019-04-14T13:39:48.725Z,7.72
2019-04-14T13:42:19.968Z,8.03
2019-04-14T13:44:51.170Z,7.10
2019-04-14T13:47:22.749Z,6.92
2019-04-14T13:49:53.852Z,7.08
2019-04-14T13:52:25.039Z,8.23
2019-04-14T13:54:57.310Z,7.80
2019-04-14T13:57:28.882Z,7.35
2019-04-14T14:00:01.243Z,8.30
2019-04-14T14:02:32.567Z,8.95
2019-04-14T14:05:04.945Z,10.40
2019-04-14T14:07:36.171Z,10.53
2019-04-14T14:10:08.376Z,9.45
2019-04-14T14:13:01.615Z,9.33
2019-04-14T14:15:44.960Z,8.20
2019-04-14T14:18:29.717Z,8.40
2019-04-14T14:21:23.361Z,8.45
2019-04-14T14:24:13.587Z,8.50
2019-04-14T14:26:45.729Z,9.03
2019-04-14T14:29:16.904Z,9.78
2019-04-14T14:31:48.486Z,13.48
2019-04-14T14:34:19.780Z,9.20
2019-04-14T14:36:55.063Z,9.10
2019-04-14T14:39:26.326Z,9.20
2019-04-14T14:41:57.927Z,9.00
2019-04-14T14:44:35.885Z,9.10
2019-04-14T14:47:19.779Z,9.85
2019-04-14T14:50:06.315Z,9.53
2019-04-14T14:52:40.046Z,10.18
2019-04-14T14:55:11.654Z,9.43
2019-04-14T14:57:43.002Z,10.38
2019-04-14T15:00:31.499Z,9.70
2019-04-14T15:03:02.964Z,10.35
2019-04-14T15:05:34.423Z,11.75
2019-04-14T15:08:05.810Z,10.78
2019-04-14T15:10:37.081Z,9.68
2019-04-14T15:13:08.701Z,10.40
2019-04-14T15:15:40.158Z,10.75
2019-04-14T15:18:11.408Z,10.88
2019-04-14T15:20:42.754Z,11.38
2019-04-14T15:23:24.317Z,11.12
2019-04-14T15:25:47.327Z,10.50
2019-04-14T15:28:18.514Z,10.30
2019-04-14T15:30:49.827Z,10.25
2019-04-14T15:33:21.698Z,9.95
2019-04-14T15:35:52.988Z,11.28
2019-04-14T15:38:24.103Z,12.63
2019-04-14T15:40:55.311Z,12.20
2019-04-14T15:43:26.907Z,11.38
2019-04-14T15:45:58.159Z,11.88
2019-04-14T15:48:29.414Z,11.70
2019-04-14T15:51:00.676Z,14.03
2019-04-14T15:53:38.217Z,21.50
2019-04-14T15:56:04.943Z,15.25
2019-04-14T15:58:55.780Z,14.35
2019-04-14T16:01:44.346Z,20.62
2019-04-14T16:04:33.574Z,16.77
2019-04-14T16:07:30.236Z,15.32
2019-04-14T16:10:10.237Z,15.13
2019-04-14T16:12:46.618Z,14.93
2019-04-14T16:15:38.270Z,17.32
2019-04-14T16:18:27.231Z,20.52
2019-04-14T16:20:58.362Z,17.62
2019-04-14T16:23:29.933Z,16.67
2019-04-14T16:26:17.406Z,15.68
2019-04-14T16:29:20.086Z,19.45
2019-04-14T16:32:09.878Z,16.30
2019-04-14T16:35:03.276Z,24.18
2019-04-14T16:37:35.412Z,17.87
2019-04-14T16:40:07.163Z,21.80
2019-04-14T16:42:38.365Z,13.45
2019-04-14T16:45:10.173Z,17.02
2019-04-14T16:47:43.745Z,15.32
2019-04-14T16:50:17.085Z,15.15
2019-04-14T16:53:08.707Z,16.07
2019-04-14T16:55:50.296Z,15.63
2019-04-14T16:58:30.932Z,15.10
2019-04-14T17:01:05.775Z,16.20
2019-04-14T17:03:37.054Z,17.27
2019-04-14T17:06:08.450Z,16.50
2019-04-14T17:08:40.246Z,17.73
2019-04-14T17:11:11.812Z,18.40
2019-04-14T17:13:46.615Z,17.92
2019-04-14T17:16:36.806Z,17.37
2019-04-14T17:19:36.721Z,18.30
2019-04-14T17:22:21.980Z,17.10
2019-04-14T17:25:11.242Z,17.23
2019-04-14T17:28:02.723Z,19.50
2019-04-14T17:30:47.460Z,18.07
2019-04-14T17:33:37.719Z,18.92
2019-04-14T17:36:22.091Z,19.45
2019-04-14T17:39:07.784Z,21.62
2019-04-14T17:42:12.038Z,20.95
2019-04-14T17:44:57.674Z,19.48
2019-04-14T17:47:38.926Z,19.37
2019-04-14T17:50:22.065Z,21.33
2019-04-14T17:53:09.256Z,26.90
2019-04-14T17:55:52.296Z,24.18
2019-04-14T17:58:38.239Z,21.52
2019-04-14T18:01:28.281Z,29.85
2019-04-14T18:04:13.187Z,28.23
2019-04-14T18:06:52.082Z,20.50
2019-04-14T18:09:44.735Z,20.88
2019-04-14T18:12:53.642Z,21.75
2019-04-14T18:15:32.301Z,22.02
2019-04-14T18:18:22.595Z,21.40
2019-04-14T18:20:57.216Z,24.85
2019-04-14T18:23:28.847Z,21.17
2019-04-14T18:26:01.080Z,22.35
2019-04-14T18:28:43.909Z,22.17
2019-04-14T18:31:22.490Z,23.30
2019-04-14T18:34:31.513Z,20.15
2019-04-14T18:37:07.826Z,20.17
2019-04-14T18:39:57.103Z,21.50
2019-04-14T18:42:32.800Z,21.52
2019-04-14T18:45:14.122Z,21.77
2019-04-14T18:47:51.883Z,21.70
2019-04-14T18:50:42.117Z,21.52
2019-04-14T18:53:20.711Z,22.40
2019-04-14T18:56:14.328Z,23.02
2019-04-14T18:59:04.476Z,24.57
2019-04-14T19:01:39.500Z,26.07
2019-04-14T19:04:11.115Z,25.85
2019-04-14T19:06:43.145Z,25.65
2019-04-14T19:09:14.471Z,24.25
2019-04-14T19:12:05.374Z,24.47
2019-04-14T19:14:38.501Z,24.05
2019-04-14T19:17:19.109Z,24.32
2019-04-14T19:20:01.335Z,24.40
2019-04-14T19:22:25.722Z,25.12
2019-04-14T19:25:07.425Z,25.30
2019-04-14T19:27:30.339Z,25.10
2019-04-14T19:30:01.585Z,24.27
2019-04-14T19:32:32.943Z,24.37
2019-04-14T19:35:04.275Z,24.32
2019-04-14T19:37:35.774Z,25.85
2019-04-14T19:40:07.690Z,24.47
2019-04-14T19:42:39.420Z,24.47
2019-04-14T19:45:11.037Z,24.27
2019-04-14T19:47:42.315Z,26.73
2019-04-14T19:50:14.030Z,26.82
2019-04-14T19:52:46.024Z,24.40
2019-04-14T19:55:20.495Z,25.23
2019-04-14T19:57:50.945Z,24.60
2019-04-14T20:00:22.620Z,23.95
2019-04-14T20:02:54.622Z,25.08
2019-04-14T20:05:26.023Z,24.50
2019-04-14T20:07:57.373Z,21.60
2019-04-14T20:10:28.962Z,23.65
2019-04-14T20:13:00.293Z,26.12
2019-04-14T20:15:36.769Z,24.12
2019-04-14T20:18:36.111Z,23.27
2019-04-14T20:21:28.967Z,24.23
2019-04-14T20:24:06.253Z,24.75
2019-04-14T20:27:02.364Z,24.27
2019-04-14T20:29:37.278Z,22.55
2019-04-14T20:32:20.993Z,22.60
2019-04-14T20:34:52.273Z,23.07
2019-04-14T20:37:24.210Z,22.82
2019-04-14T20:39:55.443Z,21.75
2019-04-14T20:42:26.653Z,21.52
2019-04-14T20:44:58.238Z,21.35
2019-04-14T20:47:29.899Z,19.60
2019-04-14T20:50:01.449Z,20.90
2019-04-14T20:52:33.087Z,21.05
2019-04-14T20:55:05.337Z,21.73
2019-04-14T20:57:38.046Z,22.80
2019-04-14T21:00:10.618Z,22.02
2019-04-14T21:03:02.521Z,23.75
2019-04-14T21:05:41.997Z,25.00
2019-04-14T21:08:30.749Z,27.98
2019-04-14T21:11:20.319Z,34.27
2019-04-14T21:14:09.434Z,26.45
2019-04-14T21:16:45.656Z,41.05
2019-04-14T21:19:34.589Z,25.72
2019-04-14T21:22:11.957Z,34.50
2019-04-14T21:24:55.783Z,33.98
2019-04-14T21:27:48.981Z,25.90
2019-04-14T21:30:43.202Z,28.23
2019-04-14T21:33:45.985Z,25.92
2019-04-14T21:36:36.177Z,26.73
2019-04-14T21:39:26.333Z,25.85
2019-04-14T21:41:57.941Z,26.55
2019-04-14T21:44:29.353Z,24.15
2019-04-14T21:47:00.806Z,23.83
2019-04-14T21:49:33.098Z,22.60
2019-04-14T21:52:10.204Z,25.55
2019-04-14T21:54:43.758Z,23.25
2019-04-14T21:57:39.463Z,25.35
2019-04-14T22:00:31.847Z,25.30
2019-04-14T22:03:27.238Z,24.23
2019-04-14T22:06:15.991Z,22.70
2019-04-14T22:08:49.930Z,21.37
2019-04-14T22:11:25.547Z,25.70
2019-04-14T22:13:56.821Z,21.48
2019-04-14T22:16:28.469Z,23.25
2019-04-14T22:19:00.130Z,22.73
2019-04-14T22:21:31.298Z,22.80
2019-04-14T22:24:02.509Z,23.18
2019-04-14T22:26:33.973Z,23.95
2019-04-14T22:29:05.178Z,23.73
2019-04-14T22:31:36.427Z,25.12
2019-04-14T22:34:07.996Z,23.55
2019-04-14T22:36:39.096Z,23.95
2019-04-14T22:39:14.362Z,24.23
2019-04-14T22:41:45.528Z,24.47
2019-04-14T22:44:16.815Z,24.77
2019-04-14T22:46:47.989Z,24.72
2019-04-14T22:49:19.207Z,23.67
2019-04-14T22:51:50.500Z,26.42
2019-04-14T22:54:21.719Z,25.60
2019-04-14T22:56:53.034Z,25.05
2019-04-14T22:59:24.167Z,26.25
2019-04-14T23:02:02.656Z,25.70
2019-04-14T23:04:58.975Z,25.23
2019-04-14T23:07:42.867Z,26.07
2019-04-14T23:10:27.530Z,25.17
2019-04-14T23:13:17.807Z,26.00
2019-04-14T23:16:03.480Z,25.30
2019-04-14T23:18:39.370Z,26.77
2019-04-14T23:21:18.694Z,26.77
2019-04-14T23:24:10.230Z,26.40
2019-04-14T23:26:51.891Z,26.05
2019-04-14T23:29:15.136Z,26.07
2019-04-14T23:31:46.395Z,25.08
2019-04-14T23:34:17.629Z,25.40
2019-04-14T23:36:48.938Z,27.62
2019-04-14T23:39:20.234Z,25.70
2019-04-14T23:41:51.406Z,26.02
2019-04-14T23:44:23.568Z,25.45
2019-04-14T23:46:54.814Z,25.12
2019-04-14T23:49:25.886Z,25.88
2019-04-14T23:51:57.182Z,25.27
2019-04-14T23:54:29.012Z,26.65
2019-04-14T23:57:05.925Z,25.37
2019-04-14T23:59:34.978Z,25.90
